Time;durP1;ratioP1;P1;durP2;ratioP2;P2;SDS_P1;SDS_P2;PMS_P1;PMS_P2;Temp;Humidity;BMP_temperature;BMP_pressure;BME280_temperature;BME280_humidity;BME280_pressure;Samples;Min_cycle;Max_cycle;Signal;HPM_P1;HPM_P2
2024/02/14 00:00:04;;;;;;;0.68;0.68;;;;;;;1.13;100.00;96457.56;1039155;28;20033;-66
2024/02/14 00:00:35;;;;;;;0.82;0.82;;;;;;;1.14;100.00;96455.78;1039283;28;20392;-66
2024/02/14 00:01:08;;;;;;;39.83;1.05;;;;;;;1.12;100.00;96455.97;1039060;28;20015;-66
2024/02/14 00:01:39;;;;;;;0.65;0.65;;;;;;;1.14;100.00;96458.34;1039307;28;20017;-66
2024/02/14 00:02:09;;;;;;;0.88;0.88;;;;;;;1.16;100.00;96454.59;1038755;28;20264;-65
2024/02/14 00:02:43;;;;;;;0.50;0.50;;;;;;;1.18;100.00;96459.63;1038957;28;20018;-66
2024/02/14 00:03:13;;;;;;;2.58;1.13;;;;;;;1.18;100.00;96457.03;1039216;28;20496;-66
2024/02/14 00:03:44;;;;;;;2.55;1.10;;;;;;;1.18;100.00;96457.81;1038804;28;20326;-65
2024/02/14 00:04:14;;;;;;;0.45;0.28;;;;;;;1.18;100.00;96459.63;1039217;28;20029;-66
2024/02/14 00:04:45;;;;;;;1.05;0.60;;;;;;;1.20;100.00;96456.81;1038816;28;20029;-65
2024/02/14 00:05:16;;;;;;;0.40;0.40;;;;;;;1.20;100.00;96452.44;1034825;28;20036;-65
2024/02/14 00:05:46;;;;;;;0.70;0.70;;;;;;;1.21;100.00;96461.81;1039369;28;20100;-66
2024/02/14 00:06:17;;;;;;;0.93;0.85;;;;;;;1.24;100.00;96455.47;1034846;28;20261;-66
2024/02/14 00:06:47;;;;;;;0.30;0.30;;;;;;;1.24;100.00;96460.63;1035076;28;20022;-65
2024/02/14 00:07:18;;;;;;;0.63;0.63;;;;;;;1.22;100.00;96458.25;1038925;28;20392;-65
2024/02/14 00:07:48;;;;;;;2.55;1.50;;;;;;;1.24;100.00;96463.22;1038980;28;20033;-66
2024/02/14 00:08:19;;;;;;;5.22;1.30;;;;;;;1.22;100.00;96460.84;1039140;28;20151;-66
2024/02/14 00:08:49;;;;;;;0.63;0.63;;;;;;;1.14;100.00;96454.00;1038807;28;20030;-65
2024/02/14 00:09:20;;;;;;;0.80;0.80;;;;;;;1.20;100.00;96456.81;1038750;28;20033;-65
2024/02/14 00:09:50;;;;;;;1.63;0.85;;;;;;;1.21;100.00;96455.84;1034509;28;20025;-65
2024/02/14 00:10:21;;;;;;;1.55;1.45;;;;;;;1.21;100.00;96461.81;1031988;28;20109;-65
2024/02/14 00:10:52;;;;;;;0.60;0.50;;;;;;;1.21;100.00;96461.81;1035223;28;20022;-65
2024/02/14 00:11:23;;;;;;;1.55;0.85;;;;;;;1.21;100.00;96459.25;1030903;28;20274;-65
2024/02/14 00:11:54;;;;;;;1.48;1.38;;;;;;;1.21;100.00;96461.81;1034851;28;20501;-65
2024/02/14 00:12:24;;;;;;;1.20;1.10;;;;;;;1.24;100.00;96463.22;1035066;28;20272;-65
2024/02/14 00:12:55;;;;;;;5.88;1.02;;;;;;;1.23;100.00;96467.59;1031244;28;20018;-65
2024/02/14 00:13:26;;;;;;;0.22;0.22;;;;;;;1.22;100.00;96467.78;1034951;28;20026;-65
2024/02/14 00:13:56;;;;;;;24.15;2.22;;;;;;;1.22;100.00;96465.22;1035028;28;20079;-65
2024/02/14 00:14:27;;;;;;;0.20;0.15;;;;;;;1.24;100.00;96463.22;1035050;28;20374;-65
2024/02/14 00:14:57;;;;;;;2.40;1.35;;;;;;;1.21;100.00;96455.84;1039114;28;20022;-66
2024/02/14 00:15:28;;;;;;;0.45;0.45;;;;;;;1.22;100.00;96465.22;1039162;28;20528;-66
2024/02/14 00:15:58;;;;;;;0.38;0.25;;;;;;;1.22;100.00;96460.03;1039026;28;20389;-65
2024/02/14 00:16:30;;;;;;;0.35;0.35;;;;;;;1.22;100.00;96462.63;1035210;28;20124;-65
2024/02/14 00:17:00;;;;;;;1.45;1.15;;;;;;;1.21;100.00;96461.00;1030687;28;20754;-65
2024/02/14 00:17:31;;;;;;;2.92;0.60;;;;;;;1.19;100.00;96463.78;1035013;28;20307;-66
2024/02/14 00:18:01;;;;;;;1.60;1.50;;;;;;;1.20;100.00;96462.00;1039449;28;20017;-65
2024/02/14 00:18:32;;;;;;;0.40;0.40;;;;;;;1.18;100.00;96463.00;1043016;28;20392;-65
2024/02/14 00:19:02;;;;;;;0.68;0.68;;;;;;;1.20;100.00;96465.38;1040236;28;20083;-65
2024/02/14 00:19:33;;;;;;;0.82;0.82;;;;;;;1.18;100.00;96457.03;1038464;28;20033;-63
2024/02/14 00:20:04;;;;;;;4.53;0.43;;;;;;;1.17;100.00;96455.41;1038947;28;20029;-65
2024/02/14 00:20:35;;;;;;;1.38;1.27;;;;;;;1.17;100.00;96458.81;1035121;28;20033;-65
2024/02/14 00:21:06;;;;;;;0.98;0.98;;;;;;;1.19;100.00;96463.78;1038941;28;20467;-66
2024/02/14 00:21:38;;;;;;;0.43;0.35;;;;;;;1.18;100.00;96457.03;1038969;28;20272;-65
2024/02/14 00:22:08;;;;;;;0.63;0.63;;;;;;;1.19;100.00;96463.78;1039111;28;20021;-65
2024/02/14 00:22:39;;;;;;;1.35;0.80;;;;;;;1.18;100.00;96463.00;1039169;28;20370;-66
2024/02/14 00:23:09;;;;;;;1.20;1.20;;;;;;;1.21;100.00;96461.00;1039636;28;20444;-65
2024/02/14 00:23:40;;;;;;;2.70;1.02;;;;;;;1.21;100.00;96461.81;1039273;28;20037;-65
2024/02/14 00:24:11;;;;;;;1.23;1.15;;;;;;;1.23;100.00;96470.19;1039205;28;20109;-66
2024/02/14 00:24:42;;;;;;;0.10;0.10;;;;;;;1.25;100.00;96468.22;1035013;28;20558;-65
2024/02/14 00:25:12;;;;;;;0.60;0.60;;;;;;;1.25;100.00;96468.22;1034843;28;20358;-66
2024/02/14 00:25:43;;;;;;;0.30;0.30;;;;;;;1.26;100.00;96467.22;1034666;28;20041;-66
2024/02/14 00:26:13;;;;;;;0.60;0.60;;;;;;;1.28;100.00;96462.69;1035514;28;20069;-65
2024/02/14 00:26:46;;;;;;;0.55;0.45;;;;;;;1.29;100.00;96460.88;1038959;28;20036;-66
2024/02/14 00:27:17;;;;;;;0.22;0.22;;;;;;;1.31;100.00;96466.69;1039168;28;20031;-66
2024/02/14 00:27:47;;;;;;;0.82;0.73;;;;;;;1.32;100.00;96463.09;1038858;28;20275;-65
2024/02/14 00:28:18;;;;;;;0.43;0.43;;;;;;;1.32;100.00;96463.09;1034765;28;20292;-66
2024/02/14 00:28:48;;;;;;;2.60;1.30;;;;;;;1.31;100.00;96459.72;1035542;28;20030;-65
2024/02/14 00:29:19;;;;;;;0.40;0.40;;;;;;;1.34;100.00;96464.53;1038800;28;20485;-65
2024/02/14 00:29:49;;;;;;;1.25;0.47;;;;;;;1.32;100.00;96463.91;1034365;28;20410;-65
2024/02/14 00:30:20;;;;;;;2.45;1.27;;;;;;;1.34;100.00;96459.34;1035118;28;20048;-65
2024/02/14 00:30:51;;;;;;;0.57;0.57;;;;;;;1.35;100.00;96460.94;1034653;28;20113;-65
2024/02/14 00:31:21;;;;;;;1.08;0.45;;;;;;;1.37;100.00;96455.56;1029689;28;20630;-63
2024/02/14 00:31:52;;;;;;;0.47;0.47;;;;;;;1.36;100.00;96456.56;1030693;28;20042;-65
2024/02/14 00:32:22;;;;;;;2.75;1.00;;;;;;;1.35;100.00;96460.94;1034700;28;20100;-66
2024/02/14 00:32:53;;;;;;;0.15;0.15;;;;;;;1.35;100.00;96462.75;1038759;28;20100;-65
2024/02/14 00:33:23;;;;;;;1.10;1.05;;;;;;;1.35;100.00;96457.56;1039348;28;20040;-66
2024/02/14 00:33:55;;;;;;;0.77;0.77;;;;;;;1.35;100.00;96460.16;1041082;28;20025;-66
2024/02/14 00:34:25;;;;;;;4.55;1.75;;;;;;;1.35;100.00;96457.56;1039941;28;20026;-65
2024/02/14 00:34:56;;;;;;;1.23;0.70;;;;;;;1.35;100.00;96458.38;1042249;28;20382;-65
2024/02/14 00:35:26;;;;;;;0.40;0.40;;;;;;;1.35;100.00;96460.16;1043236;28;20056;-65
2024/02/14 00:35:57;;;;;;;1.08;0.60;;;;;;;1.29;100.00;96448.75;1043300;28;20040;-65
2024/02/14 00:36:27;;;;;;;0.88;0.57;;;;;;;1.35;100.00;96454.97;1047665;28;20536;-65
2024/02/14 00:36:59;;;;;;;4.47;1.08;;;;;;;1.37;100.00;96460.75;1043188;28;20033;-66
2024/02/14 00:37:29;;;;;;;0.52;0.52;;;;;;;1.36;100.00;96457.38;1043194;28;20260;-65
2024/02/14 00:37:59;;;;;;;14.23;1.15;;;;;;;1.35;100.00;96454.97;1043089;28;20025;-65
2024/02/14 00:38:30;;;;;;;0.17;0.17;;;;;;;1.34;100.00;96450.78;1038913;28;20037;-65
2024/02/14 00:39:00;;;;;;;1.13;1.08;;;;;;;1.35;100.00;96455.78;1042925;28;20056;-65
2024/02/14 00:39:31;;;;;;;1.42;0.88;;;;;;;1.36;100.00;96459.16;1046404;28;20032;-65
2024/02/14 00:40:02;;;;;;;0.22;0.22;;;;;;;1.33;100.00;96449.19;1039587;28;20021;-65
2024/02/14 00:40:32;;;;;;;1.48;0.45;;;;;;;1.36;100.00;96456.56;1039008;28;20034;-64
2024/02/14 00:41:03;;;;;;;1.17;0.65;;;;;;;1.36;100.00;96456.56;1036914;28;20065;-65
2024/02/14 00:41:33;;;;;;;0.05;0.05;;;;;;;1.34;100.00;96455.94;1038778;28;20067;-66
2024/02/14 00:42:04;;;;;;;0.88;0.77;;;;;;;1.33;100.00;96455.16;1034654;28;20429;-66
2024/02/14 00:42:34;;;;;;;0.50;0.50;;;;;;;1.33;100.00;96457.75;1031575;28;20152;-65
2024/02/14 00:43:05;;;;;;;0.28;0.28;;;;;;;1.33;100.00;96459.53;1038878;28;20029;-66
2024/02/14 00:43:36;;;;;;;1.02;1.00;;;;;;;1.33;100.00;96456.94;1038910;28;20039;-66
2024/02/14 00:44:06;;;;;;;1.23;1.17;;;;;;;1.33;100.00;96460.31;1038953;28;20463;-66
2024/02/14 00:44:36;;;;;;;1.77;0.82;;;;;;;1.34;100.00;96468.88;1042933;28;20025;-66
2024/02/14 00:45:08;;;;;;;0.88;0.85;;;;;;;1.32;100.00;96457.94;1043151;28;20083;-66
2024/02/14 00:45:39;;;;;;;0.57;0.57;;;;;;;1.32;100.00;96460.53;1043391;28;20048;-66
2024/02/14 00:46:16;;;;;;;1.50;0.70;;;;;;;1.31;100.00;96456.34;1042928;28;20271;-66
2024/02/14 00:46:46;;;;;;;0.75;0.63;;;;;;;1.31;100.00;96461.50;1035006;28;20030;-65
2024/02/14 00:47:17;;;;;;;2.28;1.13;;;;;;;1.30;100.00;96460.69;1034927;28;20276;-65
2024/02/14 00:47:47;;;;;;;0.75;0.70;;;;;;;1.32;100.00;96463.09;1035019;28;20033;-65
2024/02/14 00:48:18;;;;;;;0.35;0.35;;;;;;;1.32;100.00;96465.69;1034592;28;20022;-66
2024/02/14 00:48:48;;;;;;;2.22;1.33;;;;;;;1.32;100.00;96463.91;1039038;28;20408;-66
2024/02/14 00:49:19;;;;;;;0.52;0.52;;;;;;;1.34;100.00;96461.13;1039159;28;20116;-66
2024/02/14 00:49:49;;;;;;;3.40;1.45;;;;;;;1.32;100.00;96466.50;1037975;28;20021;-66
2024/02/14 00:50:19;;;;;;;0.30;0.30;;;;;;;1.32;100.00;96460.53;1038740;28;20025;-66
2024/02/14 00:50:52;;;;;;;2.05;0.65;;;;;;;1.32;100.00;96463.91;1038991;28;20033;-66
2024/02/14 00:51:22;;;;;;;0.32;0.32;;;;;;;1.31;100.00;96462.31;1039304;28;20478;-65
2024/02/14 00:51:52;;;;;;;0.75;0.73;;;;;;;1.32;100.00;96460.53;1038887;28;20268;-66
2024/02/14 00:52:24;;;;;;;1.20;0.68;;;;;;;1.32;100.00;96463.09;1038788;28;20025;-66
2024/02/14 00:52:54;;;;;;;0.88;0.75;;;;;;;1.33;100.00;96459.53;1030793;28;20448;-66
2024/02/14 00:53:25;;;;;;;0.80;0.80;;;;;;;1.33;100.00;96464.69;1032998;28;20266;-66
2024/02/14 00:53:55;;;;;;;0.80;0.80;;;;;;;1.34;100.00;96461.13;1034919;28;20026;-66
2024/02/14 00:54:26;;;;;;;0.63;0.63;;;;;;;1.32;100.00;96458.72;1035046;28;20033;-65
2024/02/14 00:54:57;;;;;;;0.52;0.52;;;;;;;1.34;100.00;96466.28;1038826;28;20492;-66
2024/02/14 00:55:27;;;;;;;1.02;0.80;;;;;;;1.33;100.00;96464.69;1039011;28;20607;-66
2024/02/14 00:55:58;;;;;;;0.35;0.35;;;;;;;1.35;100.00;96462.75;1039500;28;20272;-66
2024/02/14 00:56:28;;;;;;;0.98;0.88;;;;;;;1.21;100.00;96445.50;1038907;28;20513;-66
2024/02/14 00:56:59;;;;;;;1.77;0.90;;;;;;;1.34;100.00;96454.19;1038667;28;20026;-66
2024/02/14 00:57:30;;;;;;;1.00;0.88;;;;;;;1.35;100.00;96457.56;1035080;28;20074;-66
2024/02/14 00:58:00;;;;;;;0.60;0.60;;;;;;;1.33;100.00;96454.34;1030984;28;20034;-66
2024/02/14 00:58:31;;;;;;;0.30;0.30;;;;;;;1.32;100.00;96457.94;1036646;28;20269;-66
2024/02/14 00:59:01;;;;;;;0.35;0.35;;;;;;;1.28;100.00;96451.53;1039408;28;20028;-66
2024/02/14 00:59:32;;;;;;;0.73;0.73;;;;;;;1.35;100.00;96457.56;1039262;28;20116;-66
2024/02/14 01:00:04;;;;;;;1.83;0.88;;;;;;;1.33;100.00;96454.34;1034439;28;20022;-66
2024/02/14 01:00:34;;;;;;;0.38;0.38;;;;;;;1.32;100.00;96458.72;1030932;28;20026;-66
2024/02/14 01:01:05;;;;;;;0.45;0.45;;;;;;;1.28;100.00;96447.16;1034643;28;20272;-66
2024/02/14 01:01:35;;;;;;;0.45;0.45;;;;;;;1.34;100.00;96458.53;1027229;28;20019;-66
2024/02/14 01:02:06;;;;;;;0.30;0.30;;;;;;;1.36;100.00;96459.16;1026572;28;20081;-66
2024/02/14 01:02:36;;;;;;;0.47;0.47;;;;;;;1.35;100.00;96460.16;1026740;28;20027;-65
2024/02/14 01:03:07;;;;;;;0.82;0.75;;;;;;;1.33;100.00;96452.56;1031111;28;20054;-66
2024/02/14 01:03:38;;;;;;;3.78;0.63;;;;;;;1.37;100.00;96460.75;1034872;28;20426;-66
2024/02/14 01:04:08;;;;;;;0.85;0.63;;;;;;;1.37;100.00;96455.56;1039117;28;20268;-66
2024/02/14 01:04:39;;;;;;;0.70;0.68;;;;;;;1.35;100.00;96457.56;1034724;28;20034;-65
2024/02/14 01:05:09;;;;;;;0.28;0.25;;;;;;;1.34;100.00;96461.94;1034645;28;20030;-66
2024/02/14 01:05:40;;;;;;;2.10;2.00;;;;;;;1.36;100.00;96457.38;1034999;28;20029;-65
2024/02/14 01:06:10;;;;;;;0.68;0.68;;;;;;;1.37;100.00;96463.34;1034793;28;20034;-66
2024/02/14 01:06:41;;;;;;;0.73;0.63;;;;;;;1.36;100.00;96465.13;1038952;28;20021;-65
2024/02/14 01:07:11;;;;;;;1.75;1.33;;;;;;;1.37;100.00;96460.75;1038796;28;20030;-65
2024/02/14 01:07:41;;;;;;;0.00;0.00;;;;;;;1.35;100.00;96460.16;1039241;28;20037;-65
2024/02/14 01:08:12;;;;;;;0.28;0.28;;;;;;;1.35;100.00;96462.75;1039110;28;20420;-66
2024/02/14 01:08:43;;;;;;;0.22;0.22;;;;;;;1.35;100.00;96460.16;1038664;28;20029;-66
2024/02/14 01:09:13;;;;;;;0.65;0.65;;;;;;;1.35;100.00;96460.94;1038688;28;20041;-68
2024/02/14 01:09:44;;;;;;;0.10;0.10;;;;;;;1.34;100.00;96461.94;1038648;28;20109;-65
2024/02/14 01:10:14;;;;;;;0.60;0.60;;;;;;;1.29;100.00;96458.31;1039029;28;20033;-65
2024/02/14 01:10:46;;;;;;;0.10;0.10;;;;;;;1.32;100.00;96457.94;1039032;28;20132;-65
2024/02/14 01:11:17;;;;;;;0.52;0.50;;;;;;;1.30;100.00;96458.09;1039009;28;20132;-65
2024/02/14 01:11:48;;;;;;;0.20;0.20;;;;;;;1.31;100.00;96466.69;1038848;28;20541;-66
2024/02/14 01:12:19;;;;;;;0.30;0.30;;;;;;;1.31;100.00;96469.28;1034113;28;20029;-65
2024/02/14 01:12:49;;;;;;;0.47;0.47;;;;;;;1.31;100.00;96462.31;1034779;28;20483;-66
2024/02/14 01:13:20;;;;;;;0.52;0.52;;;;;;;1.31;100.00;96456.34;1034839;28;20042;-66
2024/02/14 01:13:50;;;;;;;0.70;0.68;;;;;;;1.31;100.00;96461.50;1036990;28;20026;-65
2024/02/14 01:14:22;;;;;;;0.20;0.20;;;;;;;1.31;100.00;96462.31;1043096;28;20025;-65
2024/02/14 01:14:53;;;;;;;0.57;0.57;;;;;;;1.31;100.00;96461.50;1043042;28;20094;-65
2024/02/14 01:15:23;;;;;;;0.85;0.57;;;;;;;1.31;100.00;96464.09;1038849;28;20338;-65
2024/02/14 01:15:54;;;;;;;0.52;0.47;;;;;;;1.31;100.00;96461.50;1038956;28;20334;-65
2024/02/14 01:16:25;;;;;;;0.10;0.10;;;;;;;1.29;100.00;96466.06;1039149;28;20042;-65
2024/02/14 01:16:56;;;;;;;0.22;0.22;;;;;;;1.29;100.00;96461.69;1030830;28;20058;-65
2024/02/14 01:17:27;;;;;;;0.68;0.43;;;;;;;1.28;100.00;96465.25;1034314;28;20304;-65
2024/02/14 01:17:57;;;;;;;0.10;0.10;;;;;;;1.28;100.00;96461.88;1035094;28;20693;-66
2024/02/14 01:18:28;;;;;;;0.57;0.57;;;;;;;1.27;100.00;96466.22;1035101;28;20042;-66
2024/02/14 01:18:59;;;;;;;0.57;0.57;;;;;;;1.26;100.00;96453.50;1039115;28;20030;-65
2024/02/14 01:19:29;;;;;;;0.30;0.30;;;;;;;1.26;100.00;96459.47;1039093;28;20260;-65
2024/02/14 01:19:59;;;;;;;0.00;0.00;;;;;;;1.27;100.00;96470.59;1030112;28;20113;-66
2024/02/14 01:20:30;;;;;;;3.08;1.20;;;;;;;1.25;100.00;96463.06;1031743;28;20533;-65
2024/02/14 01:21:01;;;;;;;0.30;0.30;;;;;;;1.25;100.00;96472.59;1034803;28;20025;-66
2024/02/14 01:21:32;;;;;;;3.95;0.75;;;;;;;1.22;100.00;96462.63;1038910;28;20550;-66
2024/02/14 01:22:03;;;;;;;1.08;0.30;;;;;;;1.18;100.00;96465.56;1034949;28;20272;-66
2024/02/14 01:22:34;;;;;;;0.00;0.00;;;;;;;1.17;100.00;96460.56;1030743;28;20522;-66
2024/02/14 01:23:05;;;;;;;1.85;0.55;;;;;;;1.15;100.00;96458.19;1026796;28;20015;-65
2024/02/14 01:23:35;;;;;;;0.20;0.20;;;;;;;1.10;100.00;96455.34;1027209;28;20265;-65
2024/02/14 01:24:08;;;;;;;1.55;1.10;;;;;;;1.12;100.00;96468.91;1026801;28;20035;-66
2024/02/14 01:24:39;;;;;;;0.15;0.15;;;;;;;1.10;100.00;96464.88;1028073;28;20134;-65
2024/02/14 01:25:10;;;;;;;0.40;0.40;;;;;;;1.10;100.00;96473.44;1034683;28;20272;-65
2024/02/14 01:25:42;;;;;;;0.20;0.20;;;;;;;1.09;100.00;96468.47;1031102;28;20048;-65
2024/02/14 01:26:12;;;;;;;0.47;0.47;;;;;;;1.09;100.00;96466.69;1035835;28;20672;-66
2024/02/14 01:26:43;;;;;;;0.20;0.20;;;;;;;1.07;100.00;96473.00;1035033;28;20268;-65
2024/02/14 01:27:13;;;;;;;0.30;0.30;;;;;;;1.07;100.00;96473.81;1034914;28;20397;-66
2024/02/14 01:27:44;;;;;;;0.10;0.10;;;;;;;1.05;100.00;96465.44;1034735;28;20025;-65
2024/02/14 01:28:14;;;;;;;0.85;0.52;;;;;;;1.05;100.00;96472.41;1034739;28;20492;-66
2024/02/14 01:28:45;;;;;;;0.00;0.00;;;;;;;1.02;100.00;96468.41;1039138;28;20555;-65
2024/02/14 01:29:16;;;;;;;0.00;0.00;;;;;;;1.01;100.00;96463.44;1039054;28;20030;-66
2024/02/14 01:29:47;;;;;;;0.17;0.17;;;;;;;1.00;100.00;96470.34;1038655;28;20025;-66
2024/02/14 01:30:18;;;;;;;0.30;0.30;;;;;;;0.94;100.00;96460.78;1039264;28;20260;-66
2024/02/14 01:30:50;;;;;;;0.10;0.10;;;;;;;0.97;100.00;96469.94;1038687;28;20322;-66
2024/02/14 01:31:20;;;;;;;0.65;0.43;;;;;;;0.95;100.00;96464.97;1035139;28;20298;-65
2024/02/14 01:31:51;;;;;;;0.20;0.20;;;;;;;0.94;100.00;96465.94;1034786;28;20261;-66
2024/02/14 01:32:21;;;;;;;0.57;0.57;;;;;;;0.91;100.00;96463.72;1034855;28;20084;-65
2024/02/14 01:32:52;;;;;;;0.08;0.08;;;;;;;0.91;100.00;96468.91;1035316;28;20068;-65
2024/02/14 01:33:23;;;;;;;1.35;1.13;;;;;;;0.91;100.00;96471.47;1034732;28;20076;-65
2024/02/14 01:33:54;;;;;;;0.28;0.28;;;;;;;0.90;100.00;96464.69;1030673;28;20805;-65
2024/02/14 01:34:24;;;;;;;1.75;0.57;;;;;;;0.88;100.00;96467.47;1031142;28;20026;-65
2024/02/14 01:34:55;;;;;;;0.95;0.75;;;;;;;0.88;100.00;96466.69;1034984;28;20136;-65
2024/02/14 01:35:26;;;;;;;1.00;0.80;;;;;;;0.85;100.00;96467.84;1035198;28;20125;-66
2024/02/14 01:35:57;;;;;;;0.05;0.05;;;;;;;0.84;100.00;96470.59;1038728;28;20018;-65
2024/02/14 01:36:30;;;;;;;1.23;0.85;;;;;;;0.81;100.00;96466.59;1030538;28;20278;-65
2024/02/14 01:37:01;;;;;;;1.10;0.75;;;;;;;0.81;100.00;96469.19;1023511;28;20274;-66
2024/02/14 01:37:31;;;;;;;1.85;1.02;;;;;;;0.80;100.00;96469.34;1027501;28;20738;-65
2024/02/14 01:38:02;;;;;;;0.10;0.10;;;;;;;0.80;100.00;96472.75;1023448;28;20050;-66
2024/02/14 01:38:35;;;;;;;0.75;0.75;;;;;;;0.80;100.00;96467.56;1031090;28;20038;-65
2024/02/14 01:39:10;;;;;;;1.25;1.05;;;;;;;0.80;100.00;96464.19;1030774;28;20649;-65
2024/02/14 01:39:41;;;;;;;0.65;0.47;;;;;;;0.80;100.00;96472.75;1032678;28;20250;-65
2024/02/14 01:40:11;;;;;;;0.00;0.00;;;;;;;0.79;100.00;96468.56;1038853;28;20751;-64
2024/02/14 01:40:43;;;;;;;0.65;0.55;;;;;;;0.80;100.00;96469.34;1035707;28;20465;-65
2024/02/14 01:41:13;;;;;;;3.33;0.75;;;;;;;0.77;100.00;96470.53;1038478;28;20033;-65
2024/02/14 01:41:46;;;;;;;0.65;0.65;;;;;;;0.74;100.00;96463.16;1030767;28;20309;-66
2024/02/14 01:42:20;;;;;;;0.47;0.45;;;;;;;0.79;100.00;96468.56;1027428;28;20478;-65
2024/02/14 01:42:52;;;;;;;0.43;0.43;;;;;;;0.79;100.00;96472.94;1028711;28;20289;-66
2024/02/14 01:43:22;;;;;;;0.50;0.50;;;;;;;0.78;100.00;96476.50;1032924;28;20268;-66
2024/02/14 01:43:53;;;;;;;1.13;0.85;;;;;;;0.77;100.00;96474.88;1039152;28;20276;-65
2024/02/14 01:44:23;;;;;;;1.65;0.85;;;;;;;0.78;100.00;96476.50;1038727;28;20030;-65
2024/02/14 01:44:56;;;;;;;0.10;0.10;;;;;;;0.76;100.00;96468.13;1038825;28;20021;-65
2024/02/14 01:45:27;;;;;;;0.45;0.45;;;;;;;0.76;100.00;96473.28;1034699;28;20113;-66
2024/02/14 01:46:04;;;;;;;0.30;0.30;;;;;;;0.77;100.00;96467.13;1035110;28;20277;-65
2024/02/14 01:46:35;;;;;;;1.30;1.23;;;;;;;0.76;100.00;96470.72;1032383;28;20406;-65
2024/02/14 01:47:06;;;;;;;0.00;0.00;;;;;;;0.77;100.00;96472.31;1034796;28;20264;-66
2024/02/14 01:47:38;;;;;;;0.93;0.90;;;;;;;0.77;100.00;96472.31;1031470;28;20026;-65
2024/02/14 01:48:08;;;;;;;0.00;0.00;;;;;;;0.70;100.00;96460.16;1028621;28;20355;-66
2024/02/14 01:48:40;;;;;;;3.05;1.13;;;;;;;0.75;100.00;96463.97;1027366;28;20269;-66
2024/02/14 01:49:11;;;;;;;0.20;0.20;;;;;;;0.75;100.00;96466.53;1027556;28;20092;-65
2024/02/14 01:49:44;;;;;;;0.08;0.08;;;;;;;0.74;100.00;96464.91;1026860;28;20261;-65
2024/02/14 01:50:15;;;;;;;0.00;0.00;;;;;;;0.75;100.00;96467.34;1030655;28;21029;-66
2024/02/14 01:50:45;;;;;;;0.10;0.10;;;;;;;0.75;100.00;96469.13;1032062;28;20266;-66
2024/02/14 01:51:17;;;;;;;0.10;0.10;;;;;;;0.74;100.00;96467.50;1036104;28;20041;-66
2024/02/14 01:51:47;;;;;;;0.57;0.57;;;;;;;0.72;100.00;96459.94;1031890;28;20042;-65
2024/02/14 01:52:18;;;;;;;0.60;0.50;;;;;;;0.70;100.00;96460.16;1031314;28;20720;-65
2024/02/14 01:52:48;;;;;;;0.35;0.35;;;;;;;0.70;100.00;96467.91;1027288;28;20026;-65
2024/02/14 01:53:19;;;;;;;0.22;0.22;;;;;;;0.69;100.00;96458.53;1028491;28;20031;-65
2024/02/14 01:53:49;;;;;;;0.25;0.25;;;;;;;0.70;100.00;96465.31;1027380;28;20034;-66
2024/02/14 01:54:20;;;;;;;0.75;0.73;;;;;;;0.72;100.00;96461.75;1027303;28;20027;-65
2024/02/14 01:54:51;;;;;;;0.20;0.20;;;;;;;0.72;100.00;96464.31;1031496;28;20026;-66
2024/02/14 01:55:21;;;;;;;0.88;0.65;;;;;;;0.73;100.00;96463.31;1027052;28;20030;-65
2024/02/14 01:55:52;;;;;;;0.30;0.30;;;;;;;0.70;100.00;96454.97;1027758;28;20266;-65
2024/02/14 01:56:23;;;;;;;0.40;0.40;;;;;;;0.75;100.00;96462.16;1027582;28;20018;-65
2024/02/14 01:56:54;;;;;;;0.17;0.17;;;;;;;0.78;100.00;96468.75;1027333;28;20027;-65
2024/02/14 01:57:24;;;;;;;1.20;0.38;;;;;;;0.78;100.00;96468.75;1031584;28;20441;-66
2024/02/14 01:57:55;;;;;;;1.55;1.15;;;;;;;0.79;100.00;96472.94;1027596;28;20251;-66
2024/02/14 01:58:27;;;;;;;0.17;0.17;;;;;;;0.77;100.00;96460.22;1022362;28;20113;-66
2024/02/14 01:58:58;;;;;;;0.85;0.30;;;;;;;0.79;100.00;96457.44;1023619;29;20598;-66
2024/02/14 01:59:30;;;;;;;0.08;0.08;;;;;;;0.79;100.00;96462.59;1023749;28;20278;-65
2024/02/14 02:00:07;;;;;;;0.25;0.20;;;;;;;0.80;100.00;96465.00;1027277;28;20262;-65
2024/02/14 02:00:38;;;;;;;0.40;0.40;;;;;;;0.78;100.00;96455.84;1024768;28;20298;-66
2024/02/14 02:01:09;;;;;;;0.30;0.30;;;;;;;0.82;100.00;96459.66;1028546;28;20258;-65
2024/02/14 02:01:40;;;;;;;0.95;0.65;;;;;;;0.84;100.00;96462.84;1023712;29;20500;-65
2024/02/14 02:02:10;;;;;;;0.57;0.57;;;;;;;0.84;100.00;96461.09;1027169;28;20281;-65
2024/02/14 02:02:41;;;;;;;1.08;0.47;;;;;;;0.87;100.00;96465.06;1023778;28;20503;-65
2024/02/14 02:03:11;;;;;;;0.10;0.10;;;;;;;0.86;100.00;96461.69;1027521;28;20198;-66
2024/02/14 02:03:42;;;;;;;0.08;0.08;;;;;;;0.84;100.00;96458.50;1029677;28;20026;-65
2024/02/14 02:04:12;;;;;;;0.17;0.17;;;;;;;0.85;100.00;96459.28;1035671;28;20052;-65
2024/02/14 02:04:42;;;;;;;0.30;0.30;;;;;;;0.85;100.00;96460.09;1035310;28;20549;-65
2024/02/14 02:05:13;;;;;;;0.35;0.35;;;;;;;0.87;100.00;96454.72;1035307;28;20033;-65
2024/02/14 02:05:44;;;;;;;0.10;0.10;;;;;;;0.86;100.00;96453.13;1039558;28;20627;-65
2024/02/14 02:06:15;;;;;;;7.53;0.50;;;;;;;0.86;100.00;96456.50;1035508;28;20587;-65
2024/02/14 02:06:45;;;;;;;0.35;0.35;;;;;;;0.87;100.00;96454.72;1031427;28;20030;-65
2024/02/14 02:07:18;;;;;;;0.00;0.00;;;;;;;0.86;100.00;96453.94;1035139;28;20249;-65
2024/02/14 02:07:49;;;;;;;0.40;0.40;;;;;;;0.87;100.00;96454.72;1035801;28;20112;-66
2024/02/14 02:08:20;;;;;;;0.57;0.57;;;;;;;0.84;100.00;96455.09;1036396;28;20260;-65
2024/02/14 02:08:50;;;;;;;0.10;0.10;;;;;;;0.85;100.00;96456.72;1039305;28;20060;-66
2024/02/14 02:09:21;;;;;;;0.20;0.20;;;;;;;0.87;100.00;96460.72;1035254;28;20464;-65
2024/02/14 02:09:51;;;;;;;0.10;0.10;;;;;;;0.86;100.00;96453.13;1035112;28;20025;-65
2024/02/14 02:10:22;;;;;;;1.48;1.17;;;;;;;0.85;100.00;96457.50;1039405;28;20080;-65
2024/02/14 02:10:55;;;;;;;1.17;0.52;;;;;;;0.84;100.00;96458.50;1039489;28;20021;-65
2024/02/14 02:11:26;;;;;;;0.10;0.10;;;;;;;0.85;100.00;96456.72;1039447;28;20298;-65
2024/02/14 02:11:56;;;;;;;0.85;0.32;;;;;;;0.83;100.00;96454.28;1035512;28;20499;-65
2024/02/14 02:12:27;;;;;;;0.30;0.30;;;;;;;0.83;100.00;96461.25;1039589;28;20485;-65
2024/02/14 02:13:00;;;;;;;0.52;0.52;;;;;;;0.80;100.00;96457.25;1035305;28;20045;-66
2024/02/14 02:13:31;;;;;;;0.88;0.10;;;;;;;0.80;100.00;96459.81;1031847;28;20270;-66
2024/02/14 02:14:04;;;;;;;0.10;0.10;;;;;;;0.82;100.00;96462.25;1035251;28;20440;-65
2024/02/14 02:14:35;;;;;;;0.85;0.57;;;;;;;0.81;100.00;96465.81;1036148;28;20101;-65
2024/02/14 02:15:12;;;;;;;0.90;0.43;;;;;;;0.81;100.00;96455.47;1040052;28;20294;-66
2024/02/14 02:15:44;;;;;;;0.10;0.10;;;;;;;0.79;100.00;96457.44;1043439;28;20346;-65
2024/02/14 02:16:15;;;;;;;0.30;0.30;;;;;;;0.79;100.00;96460.03;1042231;28;20268;-66
2024/02/14 02:16:49;;;;;;;0.10;0.10;;;;;;;0.78;100.00;96458.44;1036955;28;20333;-65
2024/02/14 02:17:20;;;;;;;0.00;0.00;;;;;;;0.78;100.00;96461.81;1035217;28;20272;-66
2024/02/14 02:17:53;;;;;;;0.22;0.22;;;;;;;0.77;100.00;96459.38;1035495;28;20272;-66
2024/02/14 02:18:25;;;;;;;0.32;0.32;;;;;;;0.77;100.00;96455.06;1035300;28;20271;-69
2024/02/14 02:18:56;;;;;;;0.22;0.22;;;;;;;0.77;100.00;96456.81;1037091;28;20276;-65
2024/02/14 02:19:26;;;;;;;1.27;0.65;;;;;;;0.76;100.00;96460.38;1035441;28;20680;-65
2024/02/14 02:19:57;;;;;;;0.00;0.00;;;;;;;0.76;100.00;96462.97;1031729;28;20273;-66
2024/02/14 02:20:28;;;;;;;0.00;0.00;;;;;;;0.76;100.00;96460.38;1036740;28;20137;-69
2024/02/14 02:20:58;;;;;;;0.00;0.00;;;;;;;0.77;100.00;96459.38;1040213;28;20330;-69
2024/02/14 02:21:31;;;;;;;0.15;0.15;;;;;;;0.77;100.00;96460.22;1043596;28;20029;-65
2024/02/14 02:22:01;;;;;;;0.95;0.35;;;;;;;0.77;100.00;96459.38;1039929;28;20022;-65
2024/02/14 02:22:35;;;;;;;0.85;0.75;;;;;;;0.78;100.00;96466.19;1041715;28;20268;-66
2024/02/14 02:23:05;;;;;;;4.13;1.42;;;;;;;0.77;100.00;96465.38;1041993;28;20037;-66
2024/02/14 02:23:36;;;;;;;0.30;0.30;;;;;;;0.76;100.00;96468.13;1039987;28;20275;-65
2024/02/14 02:24:06;;;;;;;1.13;0.75;;;;;;;0.77;100.00;96467.97;1040210;28;20029;-66
2024/02/14 02:24:37;;;;;;;0.70;0.70;;;;;;;0.75;100.00;96464.75;1041209;28;20035;-65
2024/02/14 02:25:07;;;;;;;0.32;0.10;;;;;;;0.77;100.00;96467.13;1042170;28;20067;-65
2024/02/14 02:25:38;;;;;;;0.40;0.40;;;;;;;0.77;100.00;96464.56;1040186;28;20041;-65